createdAt,value
2022-12-14T00:02:01.045Z,-0.65
2022-12-14T00:05:07.717Z,-0.61
2022-12-14T00:08:16.467Z,-0.59
2022-12-14T00:11:28.330Z,-0.57
2022-12-14T00:14:38.919Z,-0.56
2022-12-14T00:17:50.270Z,-0.55
2022-12-14T00:20:59.033Z,-0.52
2022-12-14T00:24:09.925Z,-0.48
2022-12-14T00:27:17.959Z,-0.47
2022-12-14T00:30:28.894Z,-0.43
2022-12-14T00:33:35.229Z,-0.40
2022-12-14T00:36:45.229Z,-0.37
2022-12-14T00:39:52.703Z,-0.34
2022-12-14T00:43:01.111Z,-0.33
2022-12-14T00:46:09.916Z,-0.35
2022-12-14T00:49:16.939Z,-0.33
2022-12-14T00:52:26.065Z,-0.35
2022-12-14T00:55:32.663Z,-0.36
2022-12-14T00:58:40.795Z,-0.35
2022-12-14T01:01:51.875Z,-0.32
2022-12-14T01:05:00.270Z,-0.31
2022-12-14T01:08:07.851Z,-0.30
2022-12-14T01:11:20.998Z,-0.30
2022-12-14T01:14:34.587Z,-0.32
2022-12-14T01:17:43.714Z,-0.34
2022-12-14T01:20:53.983Z,-0.36
2022-12-14T01:24:09.724Z,-0.38
2022-12-14T01:27:20.358Z,-0.42
2022-12-14T01:30:29.342Z,-0.46
2022-12-14T01:33:37.243Z,-0.56
2022-12-14T01:36:46.361Z,-0.71
2022-12-14T01:39:52.656Z,-0.90
2022-12-14T01:43:00.536Z,-1.09
2022-12-14T01:46:11.503Z,-1.27
2022-12-14T01:49:24.718Z,-1.44
2022-12-14T01:52:37.792Z,-1.62
2022-12-14T01:55:53.557Z,-1.81
2022-12-14T01:59:05.316Z,-1.97
2022-12-14T02:02:15.485Z,-2.08
2022-12-14T02:05:23.407Z,-2.19
2022-12-14T02:08:31.691Z,-2.29
2022-12-14T02:11:58.717Z,-2.36
2022-12-14T02:15:05.070Z,-2.46
2022-12-14T02:18:22.212Z,-2.56
2022-12-14T02:22:01.935Z,-2.63
2022-12-14T02:25:50.979Z,-2.75
2022-12-14T02:29:11.196Z,-2.83
2022-12-14T02:33:11.121Z,-2.91
2022-12-14T02:36:28.614Z,-2.99
2022-12-14T02:40:09.329Z,-3.08
2022-12-14T02:43:36.857Z,-3.13
2022-12-14T02:46:57.283Z,-3.22
2022-12-14T02:50:34.205Z,-3.27
2022-12-14T02:53:48.683Z,-3.31
2022-12-14T02:57:02.582Z,-3.38
2022-12-14T03:00:14.171Z,-3.45
2022-12-14T03:03:24.296Z,-3.48
2022-12-14T03:06:35.037Z,-3.50
2022-12-14T03:09:43.811Z,-3.56
2022-12-14T03:12:46.411Z,-3.59
2022-12-14T03:15:56.660Z,-3.62
2022-12-14T03:19:12.609Z,-3.64
2022-12-14T03:22:29.447Z,-3.65
2022-12-14T03:25:44.382Z,-3.67
2022-12-14T03:29:11.825Z,-3.68
2022-12-14T03:32:25.899Z,-3.69
2022-12-14T03:35:51.403Z,-3.73
2022-12-14T03:39:05.700Z,-3.74
2022-12-14T03:42:42.628Z,-3.74
2022-12-14T03:46:10.601Z,-3.77
2022-12-14T03:49:49.009Z,-3.78
2022-12-14T03:53:29.547Z,-3.82
2022-12-14T03:57:02.321Z,-3.84
2022-12-14T04:00:28.432Z,-3.86
2022-12-14T04:04:09.025Z,-3.89
2022-12-14T04:07:35.361Z,-3.90
2022-12-14T04:11:08.605Z,-3.94
2022-12-14T04:14:51.495Z,-3.95
2022-12-14T04:18:19.362Z,-3.97
2022-12-14T04:21:58.967Z,-3.99
2022-12-14T04:25:36.029Z,-4.04
2022-12-14T04:29:10.727Z,-4.09
2022-12-14T04:32:45.186Z,-4.16
2022-12-14T04:35:59.849Z,-4.22
2022-12-14T04:39:24.244Z,-4.27
2022-12-14T04:42:40.752Z,-4.32
2022-12-14T04:45:59.180Z,-4.39
2022-12-14T04:49:42.993Z,-4.42
2022-12-14T04:53:26.267Z,-4.44
2022-12-14T04:57:17.401Z,-4.49
2022-12-14T05:00:36.747Z,-4.53
2022-12-14T05:04:14.534Z,-4.54
2022-12-14T05:07:32.673Z,-4.56
2022-12-14T05:11:04.740Z,-4.60
2022-12-14T05:14:05.870Z,-4.67
2022-12-14T05:17:12.806Z,-4.72
2022-12-14T05:20:21.483Z,-4.80
2022-12-14T05:23:31.293Z,-4.85
2022-12-14T05:26:46.561Z,-4.89
2022-12-14T05:29:55.063Z,-4.92
2022-12-14T05:33:07.118Z,-4.97
2022-12-14T05:36:18.308Z,-5.00
2022-12-14T05:39:34.449Z,-5.03
2022-12-14T05:42:48.699Z,-5.04
2022-12-14T05:45:54.972Z,-5.03
2022-12-14T05:49:19.632Z,-5.01
2022-12-14T05:52:31.443Z,-4.97
2022-12-14T05:56:18.666Z,-4.93
2022-12-14T05:59:31.494Z,-4.82
2022-12-14T06:02:38.833Z,-4.67
2022-12-14T06:05:44.764Z,-4.52
2022-12-14T06:09:24.379Z,-4.42
2022-12-14T06:13:03.742Z,-4.33
2022-12-14T06:16:28.902Z,-4.15
2022-12-14T06:20:01.486Z,-3.93
2022-12-14T06:23:14.419Z,-3.72
2022-12-14T06:26:33.220Z,-3.50
2022-12-14T06:33:25.580Z,-3.10
2022-12-14T06:36:42.319Z,-3.02
2022-12-14T06:40:09.089Z,-2.89
2022-12-14T06:43:23.690Z,-2.74
2022-12-14T06:46:44.225Z,-2.60
2022-12-14T06:49:51.267Z,-2.46
2022-12-14T06:53:14.090Z,-2.28
2022-12-14T06:56:34.489Z,-2.10
2022-12-14T06:59:55.318Z,-1.95
2022-12-14T07:03:08.789Z,-1.80
2022-12-14T07:06:41.607Z,-1.67
2022-12-14T07:09:53.472Z,-1.58
2022-12-14T07:13:10.632Z,-1.45
2022-12-14T07:16:34.701Z,-1.36
2022-12-14T07:19:52.573Z,-1.29
2022-12-14T07:23:08.089Z,-1.21
2022-12-14T07:26:29.192Z,-1.12
2022-12-14T07:29:51.885Z,-1.07
2022-12-14T07:33:12.023Z,-0.95
2022-12-14T07:36:43.371Z,-0.82
2022-12-14T07:39:56.025Z,-0.69
2022-12-14T07:43:24.211Z,-0.59
2022-12-14T07:46:47.446Z,-0.48
2022-12-14T07:50:00.544Z,-0.33
2022-12-14T07:53:31.167Z,-0.19
2022-12-14T07:56:44.604Z,-0.09
2022-12-14T07:59:58.441Z,0.02
2022-12-14T08:03:16.352Z,0.07
2022-12-14T08:06:40.906Z,0.17
2022-12-14T08:13:44.641Z,0.45
2022-12-14T08:17:06.795Z,0.60
2022-12-14T08:20:22.964Z,0.55
2022-12-14T08:23:37.205Z,0.49
2022-12-14T08:30:27.093Z,0.44
2022-12-14T08:33:45.490Z,0.39
2022-12-14T08:37:00.914Z,0.43
2022-12-14T08:40:14.202Z,0.50
2022-12-14T08:43:35.249Z,0.56
2022-12-14T08:46:56.797Z,0.62
2022-12-14T08:50:12.531Z,0.75
2022-12-14T08:53:23.752Z,0.92
2022-12-14T08:56:35.519Z,0.99
2022-12-14T09:00:02.582Z,0.99
2022-12-14T09:03:20.219Z,0.98
2022-12-14T09:06:42.172Z,0.90
2022-12-14T09:09:53.046Z,0.83
2022-12-14T09:13:04.397Z,0.77
2022-12-14T09:16:32.026Z,0.74
2022-12-14T09:19:52.438Z,0.72
2022-12-14T09:23:09.943Z,0.59
2022-12-14T09:26:31.264Z,0.46
2022-12-14T09:29:59.087Z,0.37
2022-12-14T09:33:06.979Z,0.33
2022-12-14T09:36:28.576Z,0.35
2022-12-14T09:39:48.804Z,0.40
2022-12-14T09:43:18.983Z,0.39
2022-12-14T09:46:56.456Z,0.40
2022-12-14T09:50:34.307Z,0.35
2022-12-14T09:53:47.047Z,0.33
2022-12-14T09:57:03.429Z,0.37
2022-12-14T10:00:22.424Z,0.38
2022-12-14T10:03:41.969Z,0.44
2022-12-14T10:07:34.340Z,0.44
2022-12-14T10:25:38.382Z,0.76
2022-12-14T10:29:12.130Z,0.76
2022-12-14T10:36:58.708Z,0.87
2022-12-14T10:40:41.106Z,0.90
2022-12-14T10:44:37.052Z,0.96
2022-12-14T10:48:04.313Z,0.97
2022-12-14T10:51:25.885Z,0.96
2022-12-14T10:55:05.283Z,0.96
2022-12-14T10:58:19.922Z,1.04
2022-12-14T11:01:36.613Z,1.05
2022-12-14T11:05:22.139Z,1.07
2022-12-14T11:09:02.120Z,1.08
2022-12-14T11:12:36.154Z,1.07
2022-12-14T11:16:05.928Z,1.10
2022-12-14T11:23:34.565Z,1.21
2022-12-14T11:26:57.785Z,1.13
2022-12-14T11:31:02.268Z,1.17
2022-12-14T11:34:31.624Z,1.18
2022-12-14T11:37:45.426Z,1.12
2022-12-14T11:41:00.975Z,1.17
2022-12-14T11:48:50.713Z,1.14
2022-12-14T11:52:32.178Z,1.18
2022-12-14T11:55:44.770Z,1.16
2022-12-14T11:59:06.818Z,1.13
2022-12-14T12:03:16.870Z,1.10
2022-12-14T12:06:32.707Z,1.09
2022-12-14T12:09:55.953Z,0.99
2022-12-14T12:13:21.451Z,0.91
2022-12-14T12:16:39.880Z,0.84
2022-12-14T12:19:50.442Z,0.84
2022-12-14T12:23:14.505Z,0.78
2022-12-14T12:26:51.400Z,0.69
2022-12-14T12:30:10.392Z,0.58
2022-12-14T12:33:41.473Z,0.46
2022-12-14T12:37:25.429Z,0.39
2022-12-14T12:41:05.699Z,0.42
2022-12-14T12:48:22.171Z,1.06
2022-12-14T12:55:57.006Z,1.15
2022-12-14T12:59:17.858Z,1.18
2022-12-14T13:02:54.837Z,1.13
2022-12-14T13:06:10.209Z,1.05
2022-12-14T13:10:01.888Z,0.96
2022-12-14T13:13:20.286Z,0.79
2022-12-14T13:17:01.716Z,0.59
2022-12-14T13:21:23.823Z,0.39
2022-12-14T13:24:35.879Z,0.17
2022-12-14T13:28:36.391Z,-0.04
2022-12-14T13:32:35.449Z,-0.18
2022-12-14T13:36:51.753Z,-0.39
2022-12-14T13:40:41.381Z,-0.61
2022-12-14T13:44:44.200Z,-0.86
2022-12-14T13:48:13.458Z,-1.04
2022-12-14T13:51:41.917Z,-1.26
2022-12-14T13:55:00.830Z,-1.48
2022-12-14T13:58:34.589Z,-1.71
2022-12-14T14:02:14.377Z,-1.92
2022-12-14T14:05:49.593Z,-2.12
2022-12-14T14:09:15.391Z,-2.28
2022-12-14T14:12:48.846Z,-2.42
2022-12-14T14:16:28.549Z,-2.53
2022-12-14T14:19:49.372Z,-2.67
2022-12-14T14:23:12.316Z,-2.77
2022-12-14T14:26:59.180Z,-2.85
2022-12-14T14:30:11.275Z,-2.93
2022-12-14T14:34:12.589Z,-3.01
2022-12-14T14:37:35.015Z,-3.09
2022-12-14T14:41:18.147Z,-3.17
2022-12-14T14:44:39.219Z,-3.23
2022-12-14T14:48:02.222Z,-3.29
2022-12-14T14:51:42.580Z,-3.34
2022-12-14T14:55:21.774Z,-3.37
2022-12-14T14:58:29.056Z,-3.40
2022-12-14T15:01:49.547Z,-3.41
2022-12-14T15:12:48.495Z,-3.53
2022-12-14T15:16:06.768Z,-3.58
2022-12-14T15:19:47.445Z,-3.61
2022-12-14T15:22:58.339Z,-3.65
2022-12-14T15:26:21.111Z,-3.68
2022-12-14T15:33:18.845Z,-3.76
2022-12-14T15:36:34.967Z,-3.80
2022-12-14T15:39:52.295Z,-3.83
2022-12-14T15:43:13.031Z,-3.86
2022-12-14T15:46:37.201Z,-3.89
2022-12-14T15:49:45.560Z,-3.95
2022-12-14T15:53:03.778Z,-3.98
2022-12-14T15:56:13.306Z,-4.03
2022-12-14T15:59:40.630Z,-4.07
2022-12-14T16:02:54.118Z,-4.11
2022-12-14T16:06:12.865Z,-4.12
2022-12-14T16:09:39.009Z,-4.11
2022-12-14T16:12:59.669Z,-4.07
2022-12-14T16:16:09.307Z,-4.07
2022-12-14T16:19:28.690Z,-4.05
2022-12-14T16:22:43.070Z,-4.03
2022-12-14T16:26:18.837Z,-4.05
2022-12-14T16:29:48.070Z,-4.06
2022-12-14T16:32:59.599Z,-4.05
2022-12-14T16:36:28.040Z,-4.05
2022-12-14T16:39:42.061Z,-4.04
2022-12-14T16:43:08.028Z,-4.04
2022-12-14T16:46:25.119Z,-4.03
2022-12-14T16:49:47.045Z,-4.06
2022-12-14T16:53:04.164Z,-4.10
2022-12-14T16:56:26.380Z,-4.17
2022-12-14T16:59:42.884Z,-4.27
2022-12-14T17:02:55.581Z,-4.38
2022-12-14T17:06:13.637Z,-4.48
2022-12-14T17:09:29.029Z,-4.57
2022-12-14T17:12:53.484Z,-4.63
2022-12-14T17:16:21.259Z,-4.69
2022-12-14T17:19:35.873Z,-4.74
2022-12-14T17:22:49.925Z,-4.75
2022-12-14T17:26:11.028Z,-4.74
2022-12-14T17:29:24.326Z,-4.74
2022-12-14T17:32:40.892Z,-4.73
2022-12-14T17:35:58.030Z,-4.69
2022-12-14T17:39:09.329Z,-4.66
2022-12-14T17:42:19.113Z,-4.64
2022-12-14T17:45:46.216Z,-4.62
2022-12-14T17:49:06.599Z,-4.63
2022-12-14T17:52:18.701Z,-4.62
2022-12-14T17:55:38.588Z,-4.60
2022-12-14T17:58:47.926Z,-4.59
2022-12-14T18:02:00.506Z,-4.62
2022-12-14T18:05:14.728Z,-4.62
2022-12-14T18:08:33.662Z,-4.62
2022-12-14T18:12:14.380Z,-4.62
2022-12-14T18:15:12.868Z,-4.57
2022-12-14T18:18:39.600Z,-4.53
2022-12-14T18:21:56.585Z,-4.46
2022-12-14T18:25:09.007Z,-4.41
2022-12-14T18:28:22.026Z,-4.37
2022-12-14T18:31:40.196Z,-4.37
2022-12-14T18:34:53.707Z,-4.40
2022-12-14T18:38:01.560Z,-4.40
2022-12-14T18:41:13.401Z,-4.42
2022-12-14T18:44:24.147Z,-4.46
2022-12-14T18:47:42.794Z,-4.47
2022-12-14T18:50:56.501Z,-4.48
2022-12-14T18:54:17.213Z,-4.44
2022-12-14T18:57:31.303Z,-4.35
2022-12-14T19:00:45.116Z,-4.29
2022-12-14T19:03:59.241Z,-4.23
2022-12-14T19:07:08.879Z,-4.15
2022-12-14T19:10:29.469Z,-4.09
2022-12-14T19:13:54.543Z,-4.02
2022-12-14T19:17:18.028Z,-4.00
2022-12-14T19:20:39.554Z,-3.94
2022-12-14T19:23:59.600Z,-3.91
2022-12-14T19:27:15.535Z,-3.90
2022-12-14T19:30:25.531Z,-3.79
2022-12-14T19:33:43.632Z,-3.74
2022-12-14T19:36:57.098Z,-3.74
2022-12-14T19:40:13.827Z,-3.75
2022-12-14T19:43:24.744Z,-3.73
2022-12-14T19:46:34.376Z,-3.65
2022-12-14T19:49:48.837Z,-3.64
2022-12-14T19:53:11.349Z,-3.61
2022-12-14T19:56:25.523Z,-3.60
2022-12-14T19:59:44.047Z,-3.55
2022-12-14T20:03:01.654Z,-3.53
2022-12-14T20:06:23.925Z,-3.62
2022-12-14T20:09:42.931Z,-3.64
2022-12-14T20:12:52.644Z,-3.65
2022-12-14T20:16:09.290Z,-3.66
2022-12-14T20:19:31.834Z,-3.67
2022-12-14T20:22:44.015Z,-3.68
2022-12-14T20:25:55.764Z,-3.70
2022-12-14T20:29:23.357Z,-3.69
2022-12-14T20:32:35.367Z,-3.72
2022-12-14T20:35:48.015Z,-3.82
2022-12-14T20:39:00.535Z,-3.89
2022-12-14T20:42:14.935Z,-3.89
2022-12-14T20:45:34.351Z,-3.92
2022-12-14T20:48:56.599Z,-3.98
2022-12-14T20:52:13.290Z,-4.04
2022-12-14T20:55:23.648Z,-4.17
2022-12-14T20:59:10.167Z,-4.28
2022-12-14T21:02:47.435Z,-4.33
2022-12-14T21:06:13.871Z,-4.40
2022-12-14T21:09:46.259Z,-4.53
2022-12-14T21:13:07.756Z,-4.67
2022-12-14T21:16:44.269Z,-4.76
